sensor_id;sensor_type;location;lat;lon;timestamp;pressure;altitude;pressure_sealevel;temperature;humidity
44103;BME280;29769;42.178;24.742;2023-02-17T00:01:47;100675.53;;;-0.23;100.00
44103;BME280;29769;42.178;24.742;2023-02-17T00:04:32;100667.81;;;-0.21;100.00
44103;BME280;29769;42.178;24.742;2023-02-17T00:07:17;100622.56;;;-0.52;100.00
44103;BME280;29769;42.178;24.742;2023-02-17T00:10:02;100664.59;;;-0.16;100.00
44103;BME280;29769;42.178;24.742;2023-02-17T00:12:47;100649.72;;;-0.21;100.00
44103;BME280;29769;42.178;24.742;2023-02-17T00:15:32;100651.28;;;-0.25;100.00
44103;BME280;29769;42.178;24.742;2023-02-17T00:18:17;100655.97;;;-0.35;100.00
44103;BME280;29769;42.178;24.742;2023-02-17T00:21:13;100652.59;;;-0.54;100.00
44103;BME280;29769;42.178;24.742;2023-02-17T00:23:58;100652.16;;;-0.64;100.00
44103;BME280;29769;42.178;24.742;2023-02-17T00:26:44;100621.59;;;-0.92;100.00
44103;BME280;29769;42.178;24.742;2023-02-17T00:29:28;100648.31;;;-0.92;100.00
44103;BME280;29769;42.178;24.742;2023-02-17T00:32:13;100656.88;;;-0.93;100.00
44103;BME280;29769;42.178;24.742;2023-02-17T00:35:00;100652.22;;;-1.00;100.00
44103;BME280;29769;42.178;24.742;2023-02-17T00:37:45;100647.75;;;-1.04;100.00
44103;BME280;29769;42.178;24.742;2023-02-17T00:40:29;100639.69;;;-0.92;100.00
44103;BME280;29769;42.178;24.742;2023-02-17T00:43:14;100627.88;;;-0.87;100.00
44103;BME280;29769;42.178;24.742;2023-02-17T00:46:00;100627.22;;;-0.81;100.00
44103;BME280;29769;42.178;24.742;2023-02-17T00:48:48;100600.28;;;-0.88;100.00
44103;BME280;29769;42.178;24.742;2023-02-17T00:51:33;100615.81;;;-0.67;100.00
44103;BME280;29769;42.178;24.742;2023-02-17T00:54:18;100610.03;;;-0.62;100.00
44103;BME280;29769;42.178;24.742;2023-02-17T00:57:03;100614.72;;;-0.72;100.00
44103;BME280;29769;42.178;24.742;2023-02-17T00:59:49;100618.41;;;-0.67;100.00
44103;BME280;29769;42.178;24.742;2023-02-17T01:02:34;100597.81;;;-0.66;100.00
44103;BME280;29769;42.178;24.742;2023-02-17T01:05:19;100604.78;;;-0.63;100.00
44103;BME280;29769;42.178;24.742;2023-02-17T01:08:04;100605.69;;;-0.63;100.00
44103;BME280;29769;42.178;24.742;2023-02-17T01:10:49;100557.09;;;-0.91;100.00
44103;BME280;29769;42.178;24.742;2023-02-17T01:13:35;100603.25;;;-0.60;100.00
44103;BME280;29769;42.178;24.742;2023-02-17T01:16:24;100601.19;;;-0.67;100.00
44103;BME280;29769;42.178;24.742;2023-02-17T01:19:12;100598.09;;;-0.60;100.00
44103;BME280;29769;42.178;24.742;2023-02-17T01:21:57;100578.34;;;-0.77;100.00
44103;BME280;29769;42.178;24.742;2023-02-17T01:24:42;100593.66;;;-0.62;100.00
44103;BME280;29769;42.178;24.742;2023-02-17T01:27:27;100595.06;;;-0.50;100.00
44103;BME280;29769;42.178;24.742;2023-02-17T01:30:12;100585.06;;;-0.42;100.00
44103;BME280;29769;42.178;24.742;2023-02-17T01:32:57;100572.56;;;-0.52;100.00
44103;BME280;29769;42.178;24.742;2023-02-17T01:35:42;100569.00;;;-0.54;100.00
44103;BME280;29769;42.178;24.742;2023-02-17T01:38:27;100569.66;;;-0.60;100.00
44103;BME280;29769;42.178;24.742;2023-02-17T01:41:13;100566.31;;;-0.57;100.00
44103;BME280;29769;42.178;24.742;2023-02-17T01:46:51;100560.59;;;-0.50;100.00
44103;BME280;29769;42.178;24.742;2023-02-17T01:49:38;100561.03;;;-0.60;100.00
44103;BME280;29769;42.178;24.742;2023-02-17T01:52:24;100541.78;;;-0.67;100.00
44103;BME280;29769;42.178;24.742;2023-02-17T01:55:14;100538.41;;;-0.85;100.00
44103;BME280;29769;42.178;24.742;2023-02-17T01:58:02;100561.19;;;-0.96;100.00
44103;BME280;29769;42.178;24.742;2023-02-17T02:00:49;100565.25;;;-1.20;100.00
44103;BME280;29769;42.178;24.742;2023-02-17T02:03:37;100556.56;;;-1.41;100.00
44103;BME280;29769;42.178;24.742;2023-02-17T02:06:25;100544.78;;;-1.71;100.00
44103;BME280;29769;42.178;24.742;2023-02-17T02:09:20;100542.16;;;-1.73;100.00
44103;BME280;29769;42.178;24.742;2023-02-17T02:15:20;100553.66;;;-1.84;100.00
44103;BME280;29769;42.178;24.742;2023-02-17T02:18:15;100545.34;;;-1.96;100.00
44103;BME280;29769;42.178;24.742;2023-02-17T02:24:22;100545.47;;;-2.11;100.00
44103;BME280;29769;42.178;24.742;2023-02-17T02:30:41;100542.34;;;-2.39;100.00
44103;BME280;29769;42.178;24.742;2023-02-17T02:33:26;100555.81;;;-2.45;100.00
44103;BME280;29769;42.178;24.742;2023-02-17T02:36:59;100558.34;;;-2.29;100.00
44103;BME280;29769;42.178;24.742;2023-02-17T02:39:24;100561.28;;;-2.21;100.00
44103;BME280;29769;42.178;24.742;2023-02-17T02:42:14;100551.00;;;-2.21;100.00
44103;BME280;29769;42.178;24.742;2023-02-17T02:45:00;100551.34;;;-2.13;100.00
44103;BME280;29769;42.178;24.742;2023-02-17T02:47:49;100548.75;;;-2.31;100.00
44103;BME280;29769;42.178;24.742;2023-02-17T03:02:43;100552.88;;;-2.35;100.00
44103;BME280;29769;42.178;24.742;2023-02-17T03:08:45;100544.59;;;-2.29;100.00
44103;BME280;29769;42.178;24.742;2023-02-17T03:11:32;100545.47;;;-2.29;100.00
44103;BME280;29769;42.178;24.742;2023-02-17T03:14:19;100542.16;;;-2.26;100.00
44103;BME280;29769;42.178;24.742;2023-02-17T03:17:05;100548.75;;;-2.31;100.00
44103;BME280;29769;42.178;24.742;2023-02-17T03:19:50;100541.03;;;-2.31;100.00
44103;BME280;29769;42.178;24.742;2023-02-17T03:22:38;100520.81;;;-2.41;100.00
44103;BME280;29769;42.178;24.742;2023-02-17T03:25:25;100545.97;;;-2.36;100.00
44103;BME280;29769;42.178;24.742;2023-02-17T03:28:10;100542.13;;;-2.44;100.00
44103;BME280;29769;42.178;24.742;2023-02-17T03:30:55;100539.00;;;-2.54;100.00
44103;BME280;29769;42.178;24.742;2023-02-17T03:33:40;100546.34;;;-2.62;100.00
44103;BME280;29769;42.178;24.742;2023-02-17T03:36:25;100542.91;;;-2.62;100.00
44103;BME280;29769;42.178;24.742;2023-02-17T03:39:10;100558.84;;;-2.70;100.00
44103;BME280;29769;42.178;24.742;2023-02-17T03:41:55;100549.22;;;-2.74;100.00
44103;BME280;29769;42.178;24.742;2023-02-17T03:44:39;100549.88;;;-2.78;100.00
44103;BME280;29769;42.178;24.742;2023-02-17T03:47:24;100563.88;;;-2.89;100.00
44103;BME280;29769;42.178;24.742;2023-02-17T03:50:09;100536.34;;;-3.22;100.00
44103;BME280;29769;42.178;24.742;2023-02-17T03:52:54;100562.09;;;-3.22;100.00
44103;BME280;29769;42.178;24.742;2023-02-17T03:55:39;100553.03;;;-3.16;100.00
44103;BME280;29769;42.178;24.742;2023-02-17T03:58:24;100565.63;;;-3.04;100.00
44103;BME280;29769;42.178;24.742;2023-02-17T04:01:10;100545.94;;;-3.03;100.00
44103;BME280;29769;42.178;24.742;2023-02-17T04:03:55;100551.97;;;-3.03;100.00
44103;BME280;29769;42.178;24.742;2023-02-17T04:06:40;100546.53;;;-3.09;100.00
44103;BME280;29769;42.178;24.742;2023-02-17T04:09:25;100543.94;;;-3.09;100.00
44103;BME280;29769;42.178;24.742;2023-02-17T04:12:10;100527.53;;;-3.11;100.00
44103;BME280;29769;42.178;24.742;2023-02-17T04:14:55;100551.00;;;-2.89;100.00
44103;BME280;29769;42.178;24.742;2023-02-17T04:17:40;100553.38;;;-2.76;100.00
44103;BME280;29769;42.178;24.742;2023-02-17T04:20:25;100552.72;;;-2.72;100.00
44103;BME280;29769;42.178;24.742;2023-02-17T04:23:10;100536.00;;;-2.80;100.00
44103;BME280;29769;42.178;24.742;2023-02-17T04:25:55;100522.50;;;-2.76;100.00
44103;BME280;29769;42.178;24.742;2023-02-17T04:28:41;100543.22;;;-2.56;100.00
44103;BME280;29769;42.178;24.742;2023-02-17T04:31:26;100538.03;;;-2.90;100.00
44103;BME280;29769;42.178;24.742;2023-02-17T04:34:11;100562.19;;;-2.88;100.00
44103;BME280;29769;42.178;24.742;2023-02-17T04:36:56;100557.88;;;-2.72;100.00
44103;BME280;29769;42.178;24.742;2023-02-17T04:39:41;100536.66;;;-2.84;100.00
44103;BME280;29769;42.178;24.742;2023-02-17T04:42:26;100545.38;;;-2.98;100.00
44103;BME280;29769;42.178;24.742;2023-02-17T04:45:11;100541.03;;;-3.15;100.00
44103;BME280;29769;42.178;24.742;2023-02-17T04:47:57;100539.91;;;-3.20;100.00
44103;BME280;29769;42.178;24.742;2023-02-17T04:50:41;100533.78;;;-3.22;100.00
44103;BME280;29769;42.178;24.742;2023-02-17T04:53:26;100538.31;;;-3.18;100.00
44103;BME280;29769;42.178;24.742;2023-02-17T04:56:11;100536.53;;;-3.19;100.00
44103;BME280;29769;42.178;24.742;2023-02-17T04:58:56;100533.22;;;-3.17;100.00
44103;BME280;29769;42.178;24.742;2023-02-17T05:01:41;100522.78;;;-3.20;100.00
44103;BME280;29769;42.178;24.742;2023-02-17T05:04:25;100503.88;;;-3.20;100.00
44103;BME280;29769;42.178;24.742;2023-02-17T05:07:10;100532.34;;;-3.01;100.00
44103;BME280;29769;42.178;24.742;2023-02-17T05:09:55;100523.84;;;-3.00;100.00
44103;BME280;29769;42.178;24.742;2023-02-17T05:12:40;100529.41;;;-2.75;100.00
44103;BME280;29769;42.178;24.742;2023-02-17T05:15:25;100527.44;;;-2.62;100.00
44103;BME280;29769;42.178;24.742;2023-02-17T05:18:10;100522.94;;;-2.50;100.00
44103;BME280;29769;42.178;24.742;2023-02-17T05:20:55;100491.25;;;-2.48;100.00
44103;BME280;29769;42.178;24.742;2023-02-17T05:23:40;100514.53;;;-2.11;100.00
44103;BME280;29769;42.178;24.742;2023-02-17T05:26:25;100526.59;;;-1.74;100.00
44103;BME280;29769;42.178;24.742;2023-02-17T05:29:10;100533.53;;;-1.37;100.00
44103;BME280;29769;42.178;24.742;2023-02-17T05:31:55;100531.50;;;-1.05;100.00
44103;BME280;29769;42.178;24.742;2023-02-17T05:34:40;100537.38;;;-0.69;100.00
44103;BME280;29769;42.178;24.742;2023-02-17T05:37:25;100540.31;;;-0.41;100.00
44103;BME280;29769;42.178;24.742;2023-02-17T05:40:10;100535.69;;;-0.07;100.00
44103;BME280;29769;42.178;24.742;2023-02-17T05:42:55;100542.44;;;0.33;100.00
44103;BME280;29769;42.178;24.742;2023-02-17T05:45:40;100538.78;;;0.72;100.00
44103;BME280;29769;42.178;24.742;2023-02-17T05:48:24;100537.00;;;1.17;100.00
44103;BME280;29769;42.178;24.742;2023-02-17T05:51:09;100536.91;;;1.40;100.00
44103;BME280;29769;42.178;24.742;2023-02-17T05:53:57;100538.75;;;1.69;100.00
44103;BME280;29769;42.178;24.742;2023-02-17T05:56:42;100526.59;;;1.66;100.00
44103;BME280;29769;42.178;24.742;2023-02-17T05:59:26;100537.34;;;1.78;100.00
44103;BME280;29769;42.178;24.742;2023-02-17T06:02:11;100543.44;;;1.79;100.00
44103;BME280;29769;42.178;24.742;2023-02-17T06:04:56;100548.94;;;1.88;100.00
44103;BME280;29769;42.178;24.742;2023-02-17T06:07:41;100534.88;;;1.82;100.00
44103;BME280;29769;42.178;24.742;2023-02-17T06:10:26;100545.97;;;2.03;100.00
44103;BME280;29769;42.178;24.742;2023-02-17T06:13:11;100559.41;;;1.66;100.00
44103;BME280;29769;42.178;24.742;2023-02-17T06:15:56;100554.00;;;1.60;100.00
44103;BME280;29769;42.178;24.742;2023-02-17T06:18:40;100548.53;;;1.76;100.00
44103;BME280;29769;42.178;24.742;2023-02-17T06:21:25;100561.53;;;2.03;100.00
44103;BME280;29769;42.178;24.742;2023-02-17T06:24:10;100559.47;;;1.67;100.00
44103;BME280;29769;42.178;24.742;2023-02-17T06:26:55;100555.78;;;1.12;100.00
44103;BME280;29769;42.178;24.742;2023-02-17T06:29:40;100561.78;;;1.11;100.00
44103;BME280;29769;42.178;24.742;2023-02-17T06:32:26;100539.44;;;1.38;100.00
44103;BME280;29769;42.178;24.742;2023-02-17T06:35:11;100542.44;;;1.50;100.00
44103;BME280;29769;42.178;24.742;2023-02-17T06:37:56;100562.19;;;1.47;100.00
44103;BME280;29769;42.178;24.742;2023-02-17T06:40:41;100564.97;;;1.76;100.00
44103;BME280;29769;42.178;24.742;2023-02-17T06:43:25;100563.81;;;2.47;100.00
44103;BME280;29769;42.178;24.742;2023-02-17T06:46:10;100553.91;;;3.22;100.00
44103;BME280;29769;42.178;24.742;2023-02-17T06:48:55;100568.63;;;3.86;100.00
44103;BME280;29769;42.178;24.742;2023-02-17T06:51:40;100560.28;;;4.36;100.00
44103;BME280;29769;42.178;24.742;2023-02-17T06:54:26;100562.97;;;5.17;100.00
44103;BME280;29769;42.178;24.742;2023-02-17T06:57:11;100552.81;;;5.79;100.00
44103;BME280;29769;42.178;24.742;2023-02-17T06:59:55;100549.19;;;6.20;100.00
44103;BME280;29769;42.178;24.742;2023-02-17T07:02:40;100554.25;;;6.67;100.00
44103;BME280;29769;42.178;24.742;2023-02-17T07:05:25;100540.78;;;7.04;94.33
44103;BME280;29769;42.178;24.742;2023-02-17T07:08:10;100544.91;;;7.58;90.05
44103;BME280;29769;42.178;24.742;2023-02-17T07:10:55;100544.34;;;7.91;83.01
44103;BME280;29769;42.178;24.742;2023-02-17T07:13:40;100555.09;;;8.23;80.47
44103;BME280;29769;42.178;24.742;2023-02-17T07:16:25;100555.38;;;8.56;77.32
44103;BME280;29769;42.178;24.742;2023-02-17T07:19:11;100554.34;;;8.36;76.48
44103;BME280;29769;42.178;24.742;2023-02-17T07:21:56;100548.97;;;8.22;76.29
44103;BME280;29769;42.178;24.742;2023-02-17T07:24:42;100544.19;;;8.84;73.25
44103;BME280;29769;42.178;24.742;2023-02-17T07:27:27;100548.81;;;9.52;68.28
44103;BME280;29769;42.178;24.742;2023-02-17T07:30:12;100548.88;;;9.92;65.45
44103;BME280;29769;42.178;24.742;2023-02-17T07:32:57;100548.03;;;9.90;64.08
44103;BME280;29769;42.178;24.742;2023-02-17T07:35:42;100533.91;;;9.45;64.66
44103;BME280;29769;42.178;24.742;2023-02-17T07:38:29;100557.34;;;9.00;65.74
44103;BME280;29769;42.178;24.742;2023-02-17T07:41:17;100548.88;;;9.67;64.06
44103;BME280;29769;42.178;24.742;2023-02-17T07:44:02;100540.16;;;10.18;61.57
44103;BME280;29769;42.178;24.742;2023-02-17T07:46:48;100542.69;;;10.94;58.16
44103;BME280;29769;42.178;24.742;2023-02-17T07:49:33;100537.19;;;11.44;54.67
44103;BME280;29769;42.178;24.742;2023-02-17T07:52:18;100534.34;;;11.82;53.58
44103;BME280;29769;42.178;24.742;2023-02-17T07:55:03;100546.16;;;12.42;51.32
44103;BME280;29769;42.178;24.742;2023-02-17T07:57:48;100538.56;;;12.96;49.45
44103;BME280;29769;42.178;24.742;2023-02-17T08:00:32;100534.78;;;13.20;49.20
44103;BME280;29769;42.178;24.742;2023-02-17T08:03:17;100533.16;;;13.74;48.06
44103;BME280;29769;42.178;24.742;2023-02-17T08:06:03;100541.72;;;14.45;45.51
44103;BME280;29769;42.178;24.742;2023-02-17T08:08:49;100534.19;;;15.17;41.69
44103;BME280;29769;42.178;24.742;2023-02-17T08:11:53;100541.25;;;14.71;41.75
44103;BME280;29769;42.178;24.742;2023-02-17T08:14:56;100520.22;;;15.07;41.56
44103;BME280;29769;42.178;24.742;2023-02-17T08:17:41;100534.50;;;16.19;40.16
44103;BME280;29769;42.178;24.742;2023-02-17T08:20:27;100539.47;;;16.68;38.59
44103;BME280;29769;42.178;24.742;2023-02-17T08:23:12;100533.91;;;17.39;37.36
44103;BME280;29769;42.178;24.742;2023-02-17T08:25:57;100525.34;;;17.58;36.66
44103;BME280;29769;42.178;24.742;2023-02-17T08:28:43;100532.56;;;18.37;35.48
44103;BME280;29769;42.178;24.742;2023-02-17T08:31:31;100530.41;;;19.47;33.43
44103;BME280;29769;42.178;24.742;2023-02-17T08:34:16;100515.50;;;20.50;31.42
44103;BME280;29769;42.178;24.742;2023-02-17T08:37:03;100519.88;;;21.32;29.68
44103;BME280;29769;42.178;24.742;2023-02-17T08:39:48;100525.16;;;22.08;28.82
44103;BME280;29769;42.178;24.742;2023-02-17T08:42:33;100517.88;;;22.63;27.92
44103;BME280;29769;42.178;24.742;2023-02-17T08:45:18;100522.91;;;22.35;26.84
44103;BME280;29769;42.178;24.742;2023-02-17T08:48:04;100510.97;;;22.94;26.49
44103;BME280;29769;42.178;24.742;2023-02-17T08:50:49;100510.78;;;22.97;26.26
44103;BME280;29769;42.178;24.742;2023-02-17T08:53:34;100509.69;;;24.44;24.85
44103;BME280;29769;42.178;24.742;2023-02-17T08:56:19;100505.69;;;25.23;24.55
44103;BME280;29769;42.178;24.742;2023-02-17T08:59:06;100510.19;;;25.22;25.15
44103;BME280;29769;42.178;24.742;2023-02-17T09:01:51;100517.03;;;25.14;25.01
44103;BME280;29769;42.178;24.742;2023-02-17T09:04:36;100500.63;;;25.88;24.41
44103;BME280;29769;42.178;24.742;2023-02-17T09:07:21;100497.13;;;26.00;23.97
44103;BME280;29769;42.178;24.742;2023-02-17T09:10:09;100493.13;;;26.72;22.81
44103;BME280;29769;42.178;24.742;2023-02-17T09:12:55;100488.66;;;26.45;23.12
44103;BME280;29769;42.178;24.742;2023-02-17T09:15:39;100496.69;;;26.85;22.76
44103;BME280;29769;42.178;24.742;2023-02-17T09:18:24;100480.38;;;27.62;21.98
44103;BME280;29769;42.178;24.742;2023-02-17T09:21:11;100477.63;;;28.11;21.61
44103;BME280;29769;42.178;24.742;2023-02-17T09:23:56;100488.13;;;28.62;21.13
44103;BME280;29769;42.178;24.742;2023-02-17T09:26:41;100473.16;;;23.78;21.14
44103;BME280;29769;42.178;24.742;2023-02-17T09:29:26;100477.59;;;20.62;23.59
44103;BME280;29769;42.178;24.742;2023-02-17T09:32:11;100457.47;;;19.23;25.06
44103;BME280;29769;42.178;24.742;2023-02-17T09:34:57;100473.13;;;19.32;25.16
44103;BME280;29769;42.178;24.742;2023-02-17T09:37:42;100447.81;;;19.44;25.06
44103;BME280;29769;42.178;24.742;2023-02-17T09:40:42;100460.78;;;19.30;25.17
44103;BME280;29769;42.178;24.742;2023-02-17T09:43:31;100447.88;;;18.46;25.66
44103;BME280;29769;42.178;24.742;2023-02-17T09:46:23;100445.16;;;18.97;24.99
44103;BME280;29769;42.178;24.742;2023-02-17T09:49:21;100453.75;;;19.72;24.77
44103;BME280;29769;42.178;24.742;2023-02-17T09:52:12;100412.47;;;19.37;25.02
44103;BME280;29769;42.178;24.742;2023-02-17T09:55:14;100440.72;;;19.86;24.83
44103;BME280;29769;42.178;24.742;2023-02-17T10:00:56;100390.53;;;19.74;24.60
44103;BME280;29769;42.178;24.742;2023-02-17T10:03:49;100427.75;;;19.77;24.51
44103;BME280;29769;42.178;24.742;2023-02-17T10:09:41;100397.88;;;20.31;24.40
44103;BME280;29769;42.178;24.742;2023-02-17T10:12:33;100380.06;;;20.10;24.60
44103;BME280;29769;42.178;24.742;2023-02-17T10:15:25;100380.34;;;19.84;24.92
44103;BME280;29769;42.178;24.742;2023-02-17T10:21:20;100413.59;;;20.97;24.03
44103;BME280;29769;42.178;24.742;2023-02-17T10:24:08;100402.78;;;21.37;22.94
44103;BME280;29769;42.178;24.742;2023-02-17T10:27:10;100423.19;;;22.29;22.66
44103;BME280;29769;42.178;24.742;2023-02-17T10:33:19;100398.41;;;22.75;22.04
44103;BME280;29769;42.178;24.742;2023-02-17T10:42:02;100326.19;;;22.05;22.33
44103;BME280;29769;42.178;24.742;2023-02-17T10:44:50;100364.16;;;22.96;21.68
44103;BME280;29769;42.178;24.742;2023-02-17T10:47:37;100327.28;;;22.01;22.37
44103;BME280;29769;42.178;24.742;2023-02-17T10:50:24;100365.69;;;22.51;21.86
44103;BME280;29769;42.178;24.742;2023-02-17T10:53:17;100338.31;;;22.29;22.04
44103;BME280;29769;42.178;24.742;2023-02-17T10:56:20;100336.47;;;21.61;22.90
44103;BME280;29769;42.178;24.742;2023-02-17T10:59:10;100323.09;;;21.61;22.54
44103;BME280;29769;42.178;24.742;2023-02-17T11:02:20;100325.38;;;22.20;21.87
44103;BME280;29769;42.178;24.742;2023-02-17T11:05:07;100340.22;;;22.10;22.34
44103;BME280;29769;42.178;24.742;2023-02-17T11:08:36;100341.84;;;22.62;21.65
44103;BME280;29769;42.178;24.742;2023-02-17T11:11:34;100301.91;;;22.41;21.42
44103;BME280;29769;42.178;24.742;2023-02-17T11:14:23;100284.41;;;22.51;20.97
44103;BME280;29769;42.178;24.742;2023-02-17T11:17:36;100314.69;;;22.53;21.38
44103;BME280;29769;42.178;24.742;2023-02-17T11:26:22;100298.25;;;22.26;20.01
44103;BME280;29769;42.178;24.742;2023-02-17T11:34:43;100282.78;;;22.31;18.48
44103;BME280;29769;42.178;24.742;2023-02-17T11:37:27;100294.00;;;22.22;19.08
44103;BME280;29769;42.178;24.742;2023-02-17T11:40:27;100297.50;;;23.20;18.30
44103;BME280;29769;42.178;24.742;2023-02-17T11:43:16;100277.81;;;23.35;17.89
44103;BME280;29769;42.178;24.742;2023-02-17T11:46:45;100300.88;;;23.99;18.26
44103;BME280;29769;42.178;24.742;2023-02-17T11:52:46;100281.38;;;24.39;17.48
44103;BME280;29769;42.178;24.742;2023-02-17T11:58:46;100269.78;;;24.09;17.02
44103;BME280;29769;42.178;24.742;2023-02-17T12:04:59;100281.41;;;23.20;18.16
44103;BME280;29769;42.178;24.742;2023-02-17T12:17:15;100268.75;;;23.67;18.37
44103;BME280;29769;42.178;24.742;2023-02-17T12:20:30;100248.72;;;22.97;17.77
44103;BME280;29769;42.178;24.742;2023-02-17T12:26:14;100233.31;;;22.85;18.33
44103;BME280;29769;42.178;24.742;2023-02-17T12:32:08;100245.66;;;23.19;16.84
44103;BME280;29769;42.178;24.742;2023-02-17T12:35:22;100219.69;;;23.49;17.24
44103;BME280;29769;42.178;24.742;2023-02-17T12:38:14;100258.91;;;23.07;17.85
44103;BME280;29769;42.178;24.742;2023-02-17T12:41:04;100235.41;;;24.00;17.08
44103;BME280;29769;42.178;24.742;2023-02-17T12:43:55;100251.72;;;23.82;17.35
44103;BME280;29769;42.178;24.742;2023-02-17T12:46:46;100228.28;;;23.11;17.43
44103;BME280;29769;42.178;24.742;2023-02-17T12:49:38;100240.75;;;23.12;18.07
44103;BME280;29769;42.178;24.742;2023-02-17T12:52:27;100225.50;;;22.96;17.34
44103;BME280;29769;42.178;24.742;2023-02-17T12:55:24;100212.09;;;22.65;17.02
44103;BME280;29769;42.178;24.742;2023-02-17T12:58:34;100227.09;;;22.85;17.53
44103;BME280;29769;42.178;24.742;2023-02-17T13:01:20;100219.09;;;23.15;17.31
44103;BME280;29769;42.178;24.742;2023-02-17T13:07:06;100237.38;;;22.77;17.43
44103;BME280;29769;42.178;24.742;2023-02-17T13:09:53;100255.13;;;22.79;17.58
44103;BME280;29769;42.178;24.742;2023-02-17T13:12:39;100245.97;;;22.35;17.96
44103;BME280;29769;42.178;24.742;2023-02-17T13:15:28;100228.16;;;22.49;18.45
44103;BME280;29769;42.178;24.742;2023-02-17T13:24:18;100218.06;;;22.39;18.39
44103;BME280;29769;42.178;24.742;2023-02-17T13:27:28;100241.38;;;22.37;18.81
44103;BME280;29769;42.178;24.742;2023-02-17T13:33:28;100230.31;;;22.27;18.84
44103;BME280;29769;42.178;24.742;2023-02-17T13:36:17;100195.69;;;21.90;19.23
44103;BME280;29769;42.178;24.742;2023-02-17T13:39:51;100232.75;;;21.82;19.74
44103;BME280;29769;42.178;24.742;2023-02-17T13:45:56;100232.34;;;21.89;19.62
44103;BME280;29769;42.178;24.742;2023-02-17T13:48:43;100223.56;;;22.20;19.86
44103;BME280;29769;42.178;24.742;2023-02-17T13:51:29;100216.97;;;22.10;19.55
44103;BME280;29769;42.178;24.742;2023-02-17T13:54:19;100224.53;;;22.50;20.07
44103;BME280;29769;42.178;24.742;2023-02-17T13:57:04;100225.75;;;21.96;20.40
44103;BME280;29769;42.178;24.742;2023-02-17T13:59:49;100239.75;;;21.84;20.99
44103;BME280;29769;42.178;24.742;2023-02-17T14:02:36;100234.69;;;22.61;20.70
44103;BME280;29769;42.178;24.742;2023-02-17T14:08:42;100233.66;;;22.15;22.20
44103;BME280;29769;42.178;24.742;2023-02-17T14:11:28;100222.38;;;22.26;21.45
44103;BME280;29769;42.178;24.742;2023-02-17T14:14:14;100208.16;;;21.91;21.76
44103;BME280;29769;42.178;24.742;2023-02-17T14:17:04;100227.00;;;21.55;22.55
44103;BME280;29769;42.178;24.742;2023-02-17T14:19:49;100238.78;;;21.85;22.59
44103;BME280;29769;42.178;24.742;2023-02-17T14:22:35;100230.47;;;21.74;22.25
44103;BME280;29769;42.178;24.742;2023-02-17T14:25:27;100238.53;;;21.57;22.44
44103;BME280;29769;42.178;24.742;2023-02-17T14:28:18;100232.22;;;21.41;22.65
44103;BME280;29769;42.178;24.742;2023-02-17T14:31:16;100245.13;;;21.84;22.46
44103;BME280;29769;42.178;24.742;2023-02-17T14:34:02;100221.91;;;21.16;22.50
44103;BME280;29769;42.178;24.742;2023-02-17T14:36:47;100221.59;;;21.03;22.72
44103;BME280;29769;42.178;24.742;2023-02-17T14:39:32;100234.75;;;21.44;22.74
44103;BME280;29769;42.178;24.742;2023-02-17T14:42:17;100219.53;;;21.27;22.25
44103;BME280;29769;42.178;24.742;2023-02-17T14:45:02;100234.34;;;20.98;22.69
44103;BME280;29769;42.178;24.742;2023-02-17T14:47:47;100243.84;;;21.04;22.68
44103;BME280;29769;42.178;24.742;2023-02-17T14:50:32;100237.34;;;21.09;22.41
44103;BME280;29769;42.178;24.742;2023-02-17T14:53:32;100250.31;;;21.00;22.79
44103;BME280;29769;42.178;24.742;2023-02-17T14:56:29;100259.59;;;20.74;23.24
44103;BME280;29769;42.178;24.742;2023-02-17T14:59:15;100256.75;;;20.77;23.35
44103;BME280;29769;42.178;24.742;2023-02-17T15:02:00;100247.38;;;20.31;23.53
44103;BME280;29769;42.178;24.742;2023-02-17T15:04:45;100266.72;;;19.97;23.75
44103;BME280;29769;42.178;24.742;2023-02-17T15:07:30;100254.84;;;19.84;24.10
44103;BME280;29769;42.178;24.742;2023-02-17T15:10:20;100260.19;;;19.64;24.53
44103;BME280;29769;42.178;24.742;2023-02-17T15:13:14;100260.72;;;19.51;24.07
44103;BME280;29769;42.178;24.742;2023-02-17T15:16:00;100263.69;;;19.22;24.61
44103;BME280;29769;42.178;24.742;2023-02-17T15:18:44;100255.31;;;18.89;25.54
44103;BME280;29769;42.178;24.742;2023-02-17T15:21:32;100266.38;;;18.79;26.23
44103;BME280;29769;42.178;24.742;2023-02-17T15:24:25;100277.75;;;18.60;26.61
44103;BME280;29769;42.178;24.742;2023-02-17T15:27:13;100277.88;;;18.34;26.92
44103;BME280;29769;42.178;24.742;2023-02-17T15:29:58;100291.38;;;18.05;27.53
44103;BME280;29769;42.178;24.742;2023-02-17T15:32:44;100273.00;;;17.72;27.57
44103;BME280;29769;42.178;24.742;2023-02-17T15:35:30;100289.91;;;17.45;28.05
44103;BME280;29769;42.178;24.742;2023-02-17T15:38:14;100287.19;;;17.20;28.13
44103;BME280;29769;42.178;24.742;2023-02-17T15:40:59;100260.75;;;16.62;28.33
44103;BME280;29769;42.178;24.742;2023-02-17T15:43:46;100297.88;;;16.63;28.38
44103;BME280;29769;42.178;24.742;2023-02-17T15:46:32;100285.09;;;16.45;28.89
44103;BME280;29769;42.178;24.742;2023-02-17T15:49:17;100296.88;;;16.06;29.78
44103;BME280;29769;42.178;24.742;2023-02-17T15:52:01;100279.06;;;15.44;29.85
44103;BME280;29769;42.178;24.742;2023-02-17T15:54:46;100290.41;;;15.14;28.99
44103;BME280;29769;42.178;24.742;2023-02-17T15:57:31;100292.50;;;15.01;28.82
44103;BME280;29769;42.178;24.742;2023-02-17T16:00:23;100298.00;;;14.94;28.74
44103;BME280;29769;42.178;24.742;2023-02-17T16:03:12;100293.91;;;14.79;28.72
44103;BME280;29769;42.178;24.742;2023-02-17T16:05:57;100292.94;;;14.83;28.81